createdAt,value
2022-09-20T00:00:33.072Z,8.48
2022-09-20T00:01:33.164Z,8.55
2022-09-20T00:02:32.997Z,8.58
2022-09-20T00:03:33.003Z,8.62
2022-09-20T00:04:33.039Z,8.62
2022-09-20T00:05:32.966Z,8.65
2022-09-20T00:06:32.983Z,8.68
2022-09-20T00:07:32.927Z,8.71
2022-09-20T00:08:32.957Z,8.76
2022-09-20T00:09:32.917Z,8.73
2022-09-20T00:10:32.919Z,8.74
2022-09-20T00:11:32.869Z,8.76
2022-09-20T00:12:32.856Z,8.77
2022-09-20T00:13:32.885Z,8.80
2022-09-20T00:14:32.887Z,8.80
2022-09-20T00:15:32.839Z,8.77
2022-09-20T00:16:32.901Z,8.79
2022-09-20T00:17:32.821Z,8.79
2022-09-20T00:18:32.805Z,8.77
2022-09-20T00:19:32.786Z,8.73
2022-09-20T00:20:32.770Z,8.71
2022-09-20T00:21:32.763Z,8.66
2022-09-20T00:22:32.781Z,8.65
2022-09-20T00:23:32.744Z,8.66
2022-09-20T00:24:32.770Z,8.63
2022-09-20T00:25:32.725Z,8.62
2022-09-20T00:26:32.702Z,8.59
2022-09-20T00:27:39.192Z,8.53
2022-09-20T00:28:32.708Z,8.52
2022-09-20T00:29:32.666Z,8.48
2022-09-20T00:30:32.668Z,8.45
2022-09-20T00:31:32.708Z,8.47
2022-09-20T00:32:32.617Z,8.44
2022-09-20T00:33:32.626Z,8.43
2022-09-20T00:34:32.618Z,8.43
2022-09-20T00:35:32.581Z,8.40
2022-09-20T00:36:32.571Z,8.38
2022-09-20T00:37:32.562Z,8.34
2022-09-20T00:38:32.541Z,8.33
2022-09-20T00:39:32.571Z,8.33
2022-09-20T00:40:32.588Z,8.29
2022-09-20T00:41:32.554Z,8.28
2022-09-20T00:42:32.505Z,8.25
2022-09-20T00:43:32.478Z,8.20
2022-09-20T00:44:32.458Z,8.22
2022-09-20T00:45:32.499Z,8.19
2022-09-20T00:46:32.461Z,8.19
2022-09-20T00:47:32.462Z,8.18
2022-09-20T00:48:32.425Z,8.16
2022-09-20T00:49:32.460Z,8.18
2022-09-20T00:50:32.432Z,8.16
2022-09-20T00:51:32.402Z,8.15
2022-09-20T00:52:32.401Z,8.10
2022-09-20T00:53:32.385Z,8.10
2022-09-20T00:54:32.353Z,8.04
2022-09-20T00:55:32.363Z,8.02
2022-09-20T00:56:32.362Z,8.02
2022-09-20T00:57:32.304Z,8.00
2022-09-20T00:58:32.283Z,8.02
2022-09-20T00:59:32.342Z,8.00
2022-09-20T01:00:32.266Z,8.02
2022-09-20T01:01:32.412Z,7.98
2022-09-20T01:02:41.754Z,8.00
2022-09-20T01:03:32.221Z,7.98
2022-09-20T01:04:32.225Z,7.95
2022-09-20T01:05:32.222Z,8.00
2022-09-20T01:06:32.182Z,7.95
2022-09-20T01:07:32.179Z,7.97
2022-09-20T01:08:32.206Z,7.90
2022-09-20T01:09:32.169Z,7.93
2022-09-20T01:10:32.138Z,7.97
2022-09-20T01:11:32.139Z,7.93
2022-09-20T01:12:32.149Z,7.93
2022-09-20T01:13:32.099Z,7.93
2022-09-20T01:14:32.113Z,7.93
2022-09-20T01:15:32.079Z,7.95
2022-09-20T01:16:32.098Z,7.97
2022-09-20T01:17:32.046Z,8.01
2022-09-20T01:18:32.036Z,8.00
2022-09-20T01:19:32.067Z,7.98
2022-09-20T01:20:32.072Z,7.98
2022-09-20T01:21:32.005Z,7.98
2022-09-20T01:22:32.021Z,7.97
2022-09-20T01:23:31.999Z,7.93
2022-09-20T01:24:32.087Z,7.93
2022-09-20T01:25:31.951Z,7.89
2022-09-20T01:26:31.930Z,7.90
2022-09-20T01:27:31.931Z,7.89
2022-09-20T01:28:31.921Z,7.92
2022-09-20T01:29:31.875Z,7.87
2022-09-20T01:30:31.911Z,7.86
2022-09-20T01:31:31.900Z,7.86
2022-09-20T01:32:31.850Z,7.83
2022-09-20T01:33:31.846Z,7.83
2022-09-20T01:34:31.894Z,7.82
2022-09-20T01:35:31.828Z,7.80
2022-09-20T01:36:31.803Z,7.79
2022-09-20T01:37:31.813Z,7.74
2022-09-20T01:38:31.788Z,7.72
2022-09-20T01:39:31.766Z,7.75
2022-09-20T01:40:31.894Z,7.71
2022-09-20T01:41:31.750Z,7.69
2022-09-20T01:42:31.725Z,7.72
2022-09-20T01:43:31.714Z,7.72
2022-09-20T01:44:31.732Z,7.74
2022-09-20T01:45:31.725Z,7.71
2022-09-20T01:46:31.719Z,7.77
2022-09-20T01:47:31.658Z,7.79
2022-09-20T01:48:31.674Z,7.82
2022-09-20T01:49:31.646Z,7.85
2022-09-20T01:50:31.657Z,7.87
2022-09-20T01:51:31.598Z,7.90
2022-09-20T01:52:31.622Z,7.89
2022-09-20T01:53:31.583Z,7.89
2022-09-20T01:54:31.586Z,7.90
2022-09-20T01:55:31.585Z,7.90
2022-09-20T01:56:31.544Z,7.93
2022-09-20T01:57:31.538Z,7.92
2022-09-20T01:58:31.552Z,7.93
2022-09-20T01:59:31.901Z,7.97
2022-09-20T02:00:31.533Z,7.92
2022-09-20T02:01:31.544Z,7.97
2022-09-20T02:02:33.146Z,7.93
2022-09-20T02:03:31.455Z,7.97
2022-09-20T02:04:31.488Z,8.01
2022-09-20T02:05:31.464Z,7.98
2022-09-20T02:06:31.432Z,7.98
2022-09-20T02:07:31.423Z,7.97
2022-09-20T02:08:31.415Z,8.02
2022-09-20T02:09:31.432Z,8.01
2022-09-20T02:10:31.373Z,8.00
2022-09-20T02:11:31.377Z,7.95
2022-09-20T02:12:33.724Z,7.98
2022-09-20T02:13:31.352Z,7.97
2022-09-20T02:14:31.379Z,7.93
2022-09-20T02:15:31.318Z,7.93
2022-09-20T02:16:31.347Z,7.93
2022-09-20T02:17:31.316Z,7.92
2022-09-20T02:18:31.293Z,7.92
2022-09-20T02:19:31.275Z,7.87
2022-09-20T02:20:31.253Z,7.87
2022-09-20T02:21:31.224Z,7.89
2022-09-20T02:22:31.234Z,7.87
2022-09-20T02:23:31.204Z,7.87
2022-09-20T02:24:31.177Z,7.83
2022-09-20T02:25:31.194Z,7.85
2022-09-20T02:26:31.186Z,7.85
2022-09-20T02:27:31.172Z,7.82
2022-09-20T02:28:31.128Z,7.82
2022-09-20T02:29:31.127Z,7.83
2022-09-20T02:30:31.130Z,7.77
2022-09-20T02:31:31.155Z,7.82
2022-09-20T02:32:31.096Z,7.85
2022-09-20T02:33:31.089Z,7.82
2022-09-20T02:34:31.065Z,7.83
2022-09-20T02:35:31.051Z,7.82
2022-09-20T02:36:31.136Z,7.79
2022-09-20T02:37:31.034Z,7.83
2022-09-20T02:38:31.016Z,7.83
2022-09-20T02:39:30.986Z,7.83
2022-09-20T02:40:31.030Z,7.85
2022-09-20T02:41:30.983Z,7.83
2022-09-20T02:42:30.999Z,7.82
2022-09-20T02:43:30.987Z,7.82
2022-09-20T02:44:30.917Z,7.87
2022-09-20T02:45:30.963Z,7.83
2022-09-20T02:46:30.913Z,7.83
2022-09-20T02:47:30.894Z,7.82
2022-09-20T02:48:30.903Z,7.86
2022-09-20T02:49:30.867Z,7.83
2022-09-20T02:50:30.836Z,7.86
2022-09-20T02:51:30.845Z,7.86
2022-09-20T02:52:30.821Z,7.83
2022-09-20T02:53:30.815Z,7.87
2022-09-20T02:54:30.815Z,7.86
2022-09-20T02:55:30.805Z,7.90
2022-09-20T02:56:30.785Z,7.87
2022-09-20T02:57:30.777Z,7.87
2022-09-20T02:58:30.776Z,7.92
2022-09-20T02:59:30.777Z,7.90
2022-09-20T03:00:30.713Z,7.93
2022-09-20T03:01:30.747Z,7.97
2022-09-20T03:02:30.787Z,7.98
2022-09-20T03:03:30.683Z,7.93
2022-09-20T03:04:30.711Z,8.01
2022-09-20T03:05:30.679Z,8.02
2022-09-20T03:06:30.637Z,8.02
2022-09-20T03:07:30.642Z,8.02
2022-09-20T03:08:30.634Z,8.04
2022-09-20T03:09:30.624Z,8.07
2022-09-20T03:10:30.625Z,8.08
2022-09-20T03:11:30.590Z,8.15
2022-09-20T03:12:30.589Z,8.18
2022-09-20T03:13:30.543Z,8.20
2022-09-20T03:14:30.564Z,8.25
2022-09-20T03:15:30.558Z,8.25
2022-09-20T03:16:30.603Z,8.25
2022-09-20T03:17:33.197Z,8.28
2022-09-20T03:18:30.505Z,8.28
2022-09-20T03:19:30.517Z,8.33
2022-09-20T03:20:30.476Z,8.34
2022-09-20T03:21:44.707Z,8.33
2022-09-20T03:22:30.515Z,8.34
2022-09-20T03:23:30.427Z,8.36
2022-09-20T03:24:30.428Z,8.36
2022-09-20T03:25:30.410Z,8.40
2022-09-20T03:26:30.514Z,8.41
2022-09-20T03:27:30.452Z,8.40
2022-09-20T03:28:30.382Z,8.43
2022-09-20T03:29:30.345Z,8.44
2022-09-20T03:30:30.359Z,8.43
2022-09-20T03:31:30.387Z,8.47
2022-09-20T03:32:30.372Z,8.45
2022-09-20T03:33:30.330Z,8.47
2022-09-20T03:34:30.292Z,8.48
2022-09-20T03:35:30.283Z,8.50
2022-09-20T03:36:30.279Z,8.52
2022-09-20T03:37:30.276Z,8.56
2022-09-20T03:38:30.261Z,8.62
2022-09-20T03:39:30.281Z,8.65
2022-09-20T03:40:30.358Z,8.62
2022-09-20T03:41:30.219Z,8.63
2022-09-20T03:42:30.212Z,8.65
2022-09-20T03:43:30.210Z,8.62
2022-09-20T03:44:30.180Z,8.65
2022-09-20T03:45:30.179Z,8.63
2022-09-20T03:46:30.139Z,8.65
2022-09-20T03:47:30.130Z,8.70
2022-09-20T03:48:30.120Z,8.70
2022-09-20T03:49:30.129Z,8.73
2022-09-20T03:50:30.091Z,8.70
2022-09-20T03:51:33.935Z,8.74
2022-09-20T03:52:30.055Z,8.76
2022-09-20T03:53:30.066Z,8.77
2022-09-20T03:54:30.106Z,8.79
2022-09-20T03:55:30.106Z,8.80
2022-09-20T03:56:30.069Z,8.81
2022-09-20T03:57:30.039Z,8.83
2022-09-20T03:58:29.994Z,8.84
2022-09-20T03:59:30.030Z,8.84
2022-09-20T04:00:30.075Z,8.86
2022-09-20T04:01:30.068Z,8.91
2022-09-20T04:02:30.077Z,8.91
2022-09-20T04:03:29.963Z,8.89
2022-09-20T04:04:29.891Z,8.95
2022-09-20T04:05:29.899Z,8.98
2022-09-20T04:06:29.937Z,9.01
2022-09-20T04:07:29.894Z,9.01
2022-09-20T04:08:29.877Z,9.04
2022-09-20T04:09:29.859Z,9.08
2022-09-20T04:10:29.836Z,9.10
2022-09-20T04:11:29.827Z,9.13
2022-09-20T04:12:29.842Z,9.21
2022-09-20T04:13:29.819Z,9.21
2022-09-20T04:14:29.862Z,9.24
2022-09-20T04:15:29.774Z,9.31
2022-09-20T04:16:29.787Z,9.31
2022-09-20T04:17:29.807Z,9.29
2022-09-20T04:18:29.778Z,9.31
2022-09-20T04:19:32.877Z,9.32
2022-09-20T04:20:29.771Z,9.31
2022-09-20T04:21:29.781Z,9.33
2022-09-20T04:22:29.745Z,9.32
2022-09-20T04:23:29.689Z,9.35
2022-09-20T04:24:29.670Z,9.36
2022-09-20T04:25:29.659Z,9.35
2022-09-20T04:26:29.627Z,9.36
2022-09-20T04:27:29.671Z,9.38
2022-09-20T04:28:29.638Z,9.39
2022-09-20T04:29:29.628Z,9.38
2022-09-20T04:30:29.589Z,9.38
2022-09-20T04:31:29.591Z,9.47
2022-09-20T04:32:29.553Z,9.47
2022-09-20T04:33:29.620Z,9.50
2022-09-20T04:34:29.563Z,9.51
2022-09-20T04:35:29.561Z,9.53
2022-09-20T04:36:29.558Z,9.54
2022-09-20T04:37:29.527Z,9.57
2022-09-20T04:38:29.482Z,9.58
2022-09-20T04:39:29.524Z,9.57
2022-09-20T04:40:29.501Z,9.60
2022-09-20T04:41:29.471Z,9.60
2022-09-20T04:42:29.477Z,9.60
2022-09-20T04:43:29.423Z,9.65
2022-09-20T04:44:29.419Z,9.66
2022-09-20T04:45:29.485Z,9.65
2022-09-20T04:46:29.395Z,9.68
2022-09-20T04:47:29.375Z,9.69
2022-09-20T04:48:29.362Z,9.71
2022-09-20T04:49:29.355Z,9.74
2022-09-20T04:50:29.375Z,9.78
2022-09-20T04:51:29.399Z,9.78
2022-09-20T04:52:29.314Z,9.83
2022-09-20T04:53:29.317Z,9.86
2022-09-20T04:54:29.269Z,9.84
2022-09-20T04:55:29.317Z,9.84
2022-09-20T04:56:29.284Z,9.87
2022-09-20T04:57:29.316Z,9.89
2022-09-20T04:58:29.267Z,9.89
2022-09-20T04:59:29.246Z,9.89
2022-09-20T05:00:29.237Z,9.86
2022-09-20T05:01:32.258Z,9.90
2022-09-20T05:02:29.268Z,9.90
2022-09-20T05:03:29.197Z,9.87
2022-09-20T05:04:29.218Z,9.90
2022-09-20T05:05:29.154Z,9.91
2022-09-20T05:06:29.157Z,9.96
2022-09-20T05:07:29.163Z,9.96
2022-09-20T05:08:29.150Z,9.97
2022-09-20T05:09:29.115Z,9.99
2022-09-20T05:10:29.119Z,10.02
2022-09-20T05:11:29.080Z,10.04
2022-09-20T05:12:29.069Z,10.01
2022-09-20T05:13:29.102Z,10.01
2022-09-20T05:14:29.053Z,10.01
2022-09-20T05:15:29.040Z,9.99
2022-09-20T05:16:29.152Z,9.97
2022-09-20T05:17:29.045Z,9.99
2022-09-20T05:18:29.031Z,9.96
2022-09-20T05:19:29.028Z,9.97
2022-09-20T05:20:28.982Z,10.01
2022-09-20T05:21:28.970Z,10.01
2022-09-20T05:22:28.949Z,10.05
2022-09-20T05:23:28.969Z,10.05
2022-09-20T05:24:28.938Z,10.02
2022-09-20T05:25:28.931Z,10.05
2022-09-20T05:26:28.980Z,10.07
2022-09-20T05:27:28.915Z,10.07
2022-09-20T05:29:55.893Z,10.07
2022-09-20T05:30:08.666Z,10.11
2022-09-20T05:31:00.596Z,10.14
2022-09-20T05:32:00.600Z,10.14
2022-09-20T05:33:00.580Z,10.12
2022-09-20T05:34:00.531Z,10.11
2022-09-20T05:35:00.537Z,10.12
2022-09-20T05:36:00.526Z,10.09
2022-09-20T05:37:00.517Z,10.12
2022-09-20T05:38:00.487Z,10.15
2022-09-20T05:39:02.881Z,10.18
2022-09-20T05:40:00.582Z,10.15
2022-09-20T05:41:00.508Z,10.18
2022-09-20T05:42:00.454Z,10.17
2022-09-20T05:43:00.453Z,10.17
2022-09-20T05:44:00.414Z,10.17
2022-09-20T05:45:00.414Z,10.14
2022-09-20T05:46:00.442Z,10.17
2022-09-20T05:47:00.410Z,10.20
2022-09-20T05:48:00.369Z,10.25
2022-09-20T05:49:00.349Z,10.23
2022-09-20T05:50:00.373Z,10.25
2022-09-20T05:51:03.645Z,10.26
2022-09-20T05:52:00.329Z,10.27
2022-09-20T05:53:00.325Z,10.30
2022-09-20T05:54:00.290Z,10.32
2022-09-20T05:55:00.291Z,10.32
2022-09-20T05:56:00.263Z,10.30
2022-09-20T05:57:00.261Z,10.34
2022-09-20T05:58:00.263Z,10.38
2022-09-20T05:59:00.245Z,10.40
2022-09-20T06:00:00.213Z,10.41
2022-09-20T06:01:00.271Z,10.42
2022-09-20T06:02:00.250Z,10.45
2022-09-20T06:03:00.196Z,10.48
2022-09-20T06:04:00.163Z,10.53
2022-09-20T06:05:00.143Z,10.56
2022-09-20T06:06:00.135Z,10.59
2022-09-20T06:07:00.121Z,10.59
2022-09-20T06:08:05.265Z,10.64
2022-09-20T06:09:00.123Z,10.68
2022-09-20T06:10:00.095Z,10.78
2022-09-20T06:11:00.095Z,10.82
2022-09-20T06:12:00.057Z,10.88
2022-09-20T06:13:00.058Z,11.00
2022-09-20T06:14:00.059Z,11.10
2022-09-20T06:15:00.016Z,11.19
2022-09-20T06:16:00.005Z,11.28
2022-09-20T06:16:59.997Z,11.35
2022-09-20T06:17:59.986Z,11.40
2022-09-20T06:18:59.980Z,11.46
2022-09-20T06:19:59.958Z,11.52
2022-09-20T06:20:59.925Z,11.57
2022-09-20T06:22:03.488Z,11.61
2022-09-20T06:22:59.907Z,11.62
2022-09-20T06:23:59.918Z,11.65
2022-09-20T06:24:59.889Z,11.70
2022-09-20T06:25:59.876Z,11.80
2022-09-20T06:26:59.848Z,11.83
2022-09-20T06:27:59.836Z,11.82
2022-09-20T06:28:59.830Z,11.82
2022-09-20T06:29:59.887Z,11.82
2022-09-20T06:30:59.845Z,11.80
2022-09-20T06:31:59.791Z,11.82
2022-09-20T06:32:59.770Z,11.82
2022-09-20T06:33:59.760Z,11.83
2022-09-20T06:34:59.750Z,11.85
2022-09-20T06:35:59.738Z,11.83
2022-09-20T06:36:59.756Z,11.83
2022-09-20T06:37:59.695Z,11.85
2022-09-20T06:38:59.682Z,11.90
2022-09-20T06:39:59.714Z,11.95
2022-09-20T06:40:59.663Z,11.96
2022-09-20T06:41:59.642Z,11.96
2022-09-20T06:42:59.644Z,11.95
2022-09-20T06:43:59.636Z,11.99
2022-09-20T06:44:59.634Z,12.01
2022-09-20T06:45:59.627Z,12.02
2022-09-20T06:46:59.737Z,11.98
2022-09-20T06:47:59.576Z,11.96
2022-09-20T06:48:59.565Z,12.01
2022-09-20T06:49:59.543Z,12.01
2022-09-20T06:50:59.524Z,12.02
2022-09-20T06:51:59.523Z,12.05
2022-09-20T06:52:59.518Z,12.12
2022-09-20T06:53:59.504Z,12.13
2022-09-20T06:54:59.466Z,12.13
2022-09-20T06:55:59.476Z,12.16
2022-09-20T06:56:59.436Z,12.21
2022-09-20T06:57:59.426Z,12.27
2022-09-20T06:58:59.420Z,12.29
2022-09-20T06:59:59.417Z,12.35
2022-09-20T07:00:59.434Z,12.37
2022-09-20T07:01:59.386Z,12.45
2022-09-20T07:02:59.366Z,12.45
2022-09-20T07:03:59.358Z,12.47
2022-09-20T07:04:59.350Z,12.50
2022-09-20T07:05:59.315Z,12.53
2022-09-20T07:06:59.311Z,12.54
2022-09-20T07:07:59.292Z,12.60
2022-09-20T07:08:59.280Z,12.64
2022-09-20T07:09:59.302Z,12.67
2022-09-20T07:10:59.296Z,12.71
2022-09-20T07:11:59.245Z,12.72
2022-09-20T07:12:59.247Z,12.75
2022-09-20T07:13:59.230Z,12.71
2022-09-20T07:14:59.211Z,12.68
2022-09-20T07:15:59.209Z,12.62
2022-09-20T07:16:59.161Z,12.59
2022-09-20T07:17:59.171Z,12.57
2022-09-20T07:18:59.146Z,12.52
2022-09-20T07:19:59.128Z,12.47
2022-09-20T07:20:59.110Z,12.47
2022-09-20T07:21:59.134Z,12.49
2022-09-20T07:22:59.073Z,12.49
2022-09-20T07:23:59.086Z,12.50
2022-09-20T07:24:59.044Z,12.50
2022-09-20T07:26:06.658Z,12.49
2022-09-20T07:26:59.007Z,12.52
2022-09-20T07:28:06.553Z,12.42
2022-09-20T07:29:06.679Z,12.38
2022-09-20T07:29:58.988Z,12.38
2022-09-20T07:30:58.954Z,12.32
2022-09-20T07:32:11.130Z,12.24
2022-09-20T07:32:58.965Z,12.27
2022-09-20T07:33:58.917Z,12.31
2022-09-20T07:34:58.926Z,12.37
2022-09-20T07:35:58.902Z,12.39
2022-09-20T07:36:58.880Z,12.41
2022-09-20T07:37:58.880Z,12.41
2022-09-20T07:38:58.850Z,12.42
2022-09-20T07:39:58.874Z,12.35
2022-09-20T07:40:58.840Z,12.35
2022-09-20T07:41:58.848Z,12.35
2022-09-20T07:42:58.823Z,12.34
2022-09-20T07:43:58.798Z,12.32
2022-09-20T07:44:58.760Z,12.28
2022-09-20T07:45:58.825Z,12.27
2022-09-20T07:46:58.772Z,12.29
2022-09-20T07:47:58.760Z,12.32
2022-09-20T07:48:58.802Z,12.37
2022-09-20T07:49:58.701Z,12.45
2022-09-20T07:50:58.682Z,12.52
2022-09-20T07:51:58.676Z,12.50
2022-09-20T07:52:58.683Z,12.52
2022-09-20T07:53:58.664Z,12.52
2022-09-20T07:54:58.627Z,12.56
2022-09-20T07:55:58.623Z,12.62
2022-09-20T07:56:58.601Z,12.71
2022-09-20T07:57:58.601Z,12.82
2022-09-20T07:58:58.580Z,13.08
2022-09-20T07:59:58.589Z,13.26
2022-09-20T08:00:58.570Z,13.23
2022-09-20T08:01:58.557Z,13.19
2022-09-20T08:02:58.509Z,13.17
2022-09-20T08:03:58.534Z,13.08
2022-09-20T08:04:58.492Z,13.05
2022-09-20T08:05:58.467Z,13.00
2022-09-20T08:06:58.465Z,12.96
2022-09-20T08:07:58.442Z,13.03
2022-09-20T08:08:58.426Z,13.03
2022-09-20T08:09:58.432Z,13.05
2022-09-20T08:10:58.386Z,13.07
2022-09-20T08:11:58.462Z,13.11
2022-09-20T08:14:07.675Z,13.33
2022-09-20T08:14:59.348Z,13.38
2022-09-20T08:15:58.332Z,13.41
2022-09-20T08:16:58.355Z,13.46
2022-09-20T08:17:58.297Z,13.48
2022-09-20T08:18:58.281Z,13.46
2022-09-20T08:19:58.282Z,13.44
2022-09-20T08:20:58.288Z,13.38
2022-09-20T08:21:58.271Z,13.42
2022-09-20T08:23:22.072Z,13.44
2022-09-20T08:23:59.210Z,13.49
2022-09-20T08:24:58.204Z,13.49
2022-09-20T08:25:58.182Z,13.49
2022-09-20T08:26:58.188Z,13.54
2022-09-20T08:27:58.177Z,13.57
2022-09-20T08:28:58.132Z,13.54
2022-09-20T08:29:58.157Z,13.55
2022-09-20T08:30:58.105Z,13.55
2022-09-20T08:31:58.169Z,13.51
2022-09-20T08:32:58.087Z,13.49
2022-09-20T08:33:58.262Z,13.44
2022-09-20T08:34:58.053Z,13.41
2022-09-20T08:35:58.126Z,13.41
2022-09-20T08:36:58.120Z,13.42
2022-09-20T08:39:57.208Z,13.46
2022-09-20T08:39:59.390Z,13.55
2022-09-20T08:40:58.115Z,13.55
2022-09-20T08:41:57.977Z,13.60
2022-09-20T08:42:57.986Z,13.67
2022-09-20T08:43:58.009Z,13.82
2022-09-20T08:44:58.569Z,13.97
2022-09-20T08:45:57.958Z,14.07
2022-09-20T08:46:57.878Z,14.09
2022-09-20T08:47:58.813Z,14.22
2022-09-20T08:48:57.870Z,14.40
2022-09-20T08:49:57.952Z,14.54
2022-09-20T08:50:57.830Z,14.57
2022-09-20T08:51:57.813Z,14.70
2022-09-20T08:53:00.094Z,14.70
2022-09-20T08:53:57.780Z,14.54
2022-09-20T08:54:58.003Z,14.58
2022-09-20T08:55:57.791Z,14.58
2022-09-20T08:56:57.964Z,14.47
2022-09-20T08:57:57.820Z,14.40
2022-09-20T08:58:57.726Z,14.47
2022-09-20T08:59:57.734Z,14.57
2022-09-20T09:00:57.791Z,14.70
2022-09-20T09:01:57.705Z,14.81
2022-09-20T09:02:57.707Z,14.86
2022-09-20T09:03:57.685Z,14.89
2022-09-20T09:04:57.679Z,14.75
2022-09-20T09:05:57.657Z,14.68
2022-09-20T09:06:57.618Z,14.50
2022-09-20T09:07:57.677Z,14.51
2022-09-20T09:08:57.708Z,14.47
2022-09-20T09:09:57.576Z,14.50
2022-09-20T09:10:57.587Z,14.57
2022-09-20T09:11:57.611Z,14.61
2022-09-20T09:12:57.583Z,14.65
2022-09-20T09:13:57.518Z,14.69
2022-09-20T09:14:57.485Z,14.68
2022-09-20T09:15:57.478Z,14.68
2022-09-20T09:16:57.554Z,14.65
2022-09-20T09:17:57.478Z,14.70
2022-09-20T09:18:57.438Z,14.77
2022-09-20T09:19:57.449Z,14.81
2022-09-20T09:20:57.416Z,14.69
2022-09-20T09:21:57.401Z,14.69
2022-09-20T09:22:57.411Z,14.80
2022-09-20T09:23:57.385Z,14.88
2022-09-20T09:24:57.378Z,14.88
2022-09-20T09:25:57.350Z,14.95
2022-09-20T09:26:57.357Z,14.95
2022-09-20T09:27:57.327Z,15.02
2022-09-20T09:28:57.375Z,15.06
2022-09-20T09:29:57.293Z,15.11
2022-09-20T09:30:57.277Z,15.16
2022-09-20T09:31:57.337Z,15.07
2022-09-20T09:32:57.286Z,15.13
2022-09-20T09:33:57.300Z,15.13
2022-09-20T09:34:57.239Z,15.03
2022-09-20T09:35:57.210Z,14.96
2022-09-20T09:36:57.224Z,14.91
2022-09-20T09:37:57.205Z,14.91
2022-09-20T09:39:05.869Z,14.91
2022-09-20T09:39:57.194Z,14.96
2022-09-20T09:40:57.143Z,14.94
2022-09-20T09:41:57.164Z,14.92
2022-09-20T09:42:57.108Z,14.96
2022-09-20T09:43:57.122Z,15.01
2022-09-20T09:44:57.202Z,14.99
2022-09-20T09:45:57.089Z,15.01
2022-09-20T09:46:57.094Z,14.91
2022-09-20T09:47:57.108Z,14.91
2022-09-20T09:48:57.081Z,14.91
2022-09-20T09:50:00.851Z,14.88
2022-09-20T09:50:58.026Z,14.83
2022-09-20T09:51:57.010Z,14.83
2022-09-20T09:52:57.109Z,14.78
2022-09-20T09:53:56.972Z,14.70
2022-09-20T09:54:56.986Z,14.72
2022-09-20T09:55:56.970Z,14.70
2022-09-20T09:56:56.935Z,14.69
2022-09-20T09:57:56.927Z,14.65
2022-09-20T09:58:56.947Z,14.65
2022-09-20T09:59:56.920Z,14.57
2022-09-20T10:00:56.979Z,14.50
2022-09-20T10:01:57.007Z,14.45
2022-09-20T10:02:56.857Z,14.40
2022-09-20T10:03:56.849Z,14.33
2022-09-20T10:04:56.838Z,14.27
2022-09-20T10:05:56.820Z,14.21
2022-09-20T10:06:56.838Z,14.14
2022-09-20T10:07:56.805Z,13.99
2022-09-20T10:08:56.776Z,13.87
2022-09-20T10:09:56.781Z,13.79
2022-09-20T10:10:56.761Z,13.66
2022-09-20T10:11:56.735Z,13.57
2022-09-20T10:12:56.717Z,13.51
2022-09-20T10:13:56.706Z,13.45
2022-09-20T10:14:56.722Z,13.42
2022-09-20T10:15:56.680Z,13.46
2022-09-20T10:16:56.829Z,13.46
2022-09-20T10:17:56.673Z,13.55
2022-09-20T10:18:56.649Z,13.60
2022-09-20T10:19:56.625Z,13.64
2022-09-20T10:20:56.597Z,13.59
2022-09-20T10:21:56.652Z,13.69
2022-09-20T10:23:29.951Z,13.77
2022-09-20T10:24:05.054Z,13.84
2022-09-20T10:24:57.582Z,13.89
2022-09-20T10:25:56.538Z,14.03
2022-09-20T10:26:56.527Z,14.12
2022-09-20T10:27:56.523Z,14.18
2022-09-20T10:28:56.491Z,14.27
2022-09-20T10:29:56.501Z,14.35
2022-09-20T10:30:56.572Z,14.35
2022-09-20T10:31:56.469Z,14.42
2022-09-20T10:32:56.979Z,14.46
2022-09-20T10:33:56.451Z,14.52
2022-09-20T10:34:56.500Z,14.62
2022-09-20T10:35:56.413Z,14.80
2022-09-20T10:36:56.388Z,14.86
2022-09-20T10:37:56.414Z,14.89
2022-09-20T10:38:56.364Z,14.92
2022-09-20T10:39:56.476Z,14.99
2022-09-20T10:40:56.349Z,15.07
2022-09-20T10:41:56.326Z,15.16
2022-09-20T10:42:56.315Z,15.25
2022-09-20T10:43:59.231Z,15.31
2022-09-20T10:44:57.277Z,15.32
2022-09-20T10:46:57.336Z,15.32
2022-09-20T10:47:56.227Z,15.31
2022-09-20T10:48:56.231Z,15.20
2022-09-20T10:49:56.231Z,15.13
2022-09-20T10:50:56.231Z,15.02
2022-09-20T10:51:56.187Z,14.89
2022-09-20T10:52:56.184Z,14.91
2022-09-20T10:53:56.164Z,14.88
2022-09-20T10:54:56.163Z,14.75
2022-09-20T10:55:56.154Z,14.73
2022-09-20T10:56:56.129Z,14.81
2022-09-20T10:57:56.128Z,14.88
2022-09-20T10:58:56.113Z,14.83
2022-09-20T10:59:56.104Z,14.89
2022-09-20T11:00:56.120Z,14.86
2022-09-20T11:01:56.120Z,14.91
2022-09-20T11:02:56.068Z,14.95
2022-09-20T11:03:56.032Z,15.01
2022-09-20T11:04:56.003Z,15.13
2022-09-20T11:05:56.049Z,15.19
2022-09-20T11:06:56.018Z,15.25
2022-09-20T11:07:55.979Z,15.34
2022-09-20T11:08:55.949Z,15.39
2022-09-20T11:09:55.981Z,15.53
2022-09-20T11:10:55.945Z,15.62
2022-09-20T11:11:55.929Z,15.60
2022-09-20T11:12:55.927Z,15.62
2022-09-20T11:13:55.956Z,15.57
2022-09-20T11:14:55.894Z,15.62
2022-09-20T11:15:55.988Z,15.65
2022-09-20T11:16:56.013Z,15.64
2022-09-20T11:17:55.977Z,15.51
2022-09-20T11:18:55.818Z,15.47
2022-09-20T11:19:55.934Z,15.60
2022-09-20T11:20:55.809Z,15.59
2022-09-20T11:21:55.824Z,15.53
2022-09-20T11:22:55.826Z,15.60
2022-09-20T11:23:55.795Z,15.50
2022-09-20T11:24:55.788Z,15.60
2022-09-20T11:25:55.760Z,15.71
2022-09-20T11:26:55.719Z,15.74
2022-09-20T11:27:55.711Z,15.89
2022-09-20T11:28:55.783Z,15.90
2022-09-20T11:29:55.695Z,15.83
2022-09-20T11:30:55.799Z,15.94
2022-09-20T11:31:55.773Z,16.04
2022-09-20T11:32:55.665Z,16.02
2022-09-20T11:33:55.722Z,16.11
2022-09-20T11:34:55.642Z,16.07
2022-09-20T11:35:55.581Z,15.97
2022-09-20T11:36:55.619Z,15.93
2022-09-20T11:37:55.633Z,16.05
2022-09-20T11:38:55.594Z,16.14
2022-09-20T11:39:55.534Z,16.21
2022-09-20T11:40:55.596Z,16.27
2022-09-20T11:41:55.506Z,16.07
2022-09-20T11:42:55.487Z,16.00
2022-09-20T11:43:55.506Z,16.04
2022-09-20T11:44:55.482Z,16.12
2022-09-20T11:45:55.545Z,16.25
2022-09-20T11:46:55.466Z,16.38
2022-09-20T11:47:55.941Z,16.48
2022-09-20T11:48:55.468Z,16.46
2022-09-20T11:49:55.408Z,16.43
2022-09-20T11:50:55.427Z,16.52
2022-09-20T11:51:55.371Z,16.64
2022-09-20T11:52:55.375Z,16.75
2022-09-20T11:53:55.370Z,16.76
2022-09-20T11:54:55.411Z,16.91
2022-09-20T11:55:55.325Z,16.96
2022-09-20T11:56:55.349Z,16.88
2022-09-20T11:57:55.301Z,16.82
2022-09-20T11:58:55.464Z,16.60
2022-09-20T11:59:55.273Z,16.28
2022-09-20T12:00:55.304Z,16.14
2022-09-20T12:01:55.287Z,16.17
2022-09-20T12:02:55.364Z,16.14
2022-09-20T12:04:14.251Z,16.12
2022-09-20T12:04:56.243Z,16.15
2022-09-20T12:05:55.247Z,16.25
2022-09-20T12:06:55.191Z,16.14
2022-09-20T12:07:55.172Z,16.20
2022-09-20T12:08:55.165Z,16.25
2022-09-20T12:09:55.168Z,16.27
2022-09-20T12:10:55.128Z,16.38
2022-09-20T12:11:55.119Z,16.41
2022-09-20T12:12:55.136Z,16.48
2022-09-20T12:13:55.080Z,16.49
2022-09-20T12:14:55.109Z,16.45
2022-09-20T12:15:55.071Z,16.49
2022-09-20T12:16:55.256Z,16.61
2022-09-20T12:17:55.056Z,16.76
2022-09-20T12:18:55.011Z,16.91
2022-09-20T12:19:55.008Z,16.94
2022-09-20T12:20:54.995Z,17.01
2022-09-20T12:21:55.001Z,16.96
2022-09-20T12:22:54.960Z,16.96
2022-09-20T12:23:54.965Z,16.86
2022-09-20T12:24:54.953Z,16.93
2022-09-20T12:25:54.906Z,16.96
2022-09-20T12:26:54.912Z,16.98
2022-09-20T12:27:54.897Z,17.01
2022-09-20T12:28:54.946Z,16.91
2022-09-20T12:29:54.884Z,16.89
2022-09-20T12:30:54.873Z,16.93
2022-09-20T12:31:55.016Z,16.97
2022-09-20T12:32:54.833Z,17.01
2022-09-20T12:33:54.836Z,17.00
2022-09-20T12:34:54.834Z,16.93
2022-09-20T12:35:54.817Z,16.79
2022-09-20T12:36:54.830Z,16.73
2022-09-20T12:37:54.799Z,16.79
2022-09-20T12:38:54.809Z,16.83
2022-09-20T12:39:54.774Z,16.88
2022-09-20T12:40:54.767Z,16.94
2022-09-20T12:41:54.698Z,16.91
2022-09-20T12:42:54.716Z,16.94
2022-09-20T12:43:54.701Z,17.01
2022-09-20T12:44:54.687Z,17.06
2022-09-20T12:45:54.712Z,17.12
2022-09-20T12:46:54.648Z,17.11
2022-09-20T12:47:54.636Z,16.85
2022-09-20T12:48:54.641Z,16.76
2022-09-20T12:49:54.669Z,16.75
2022-09-20T12:50:54.624Z,16.60
2022-09-20T12:51:54.574Z,16.63
2022-09-20T12:52:54.585Z,16.66
2022-09-20T12:53:54.611Z,16.68
2022-09-20T12:54:56.330Z,16.63
2022-09-20T12:55:54.562Z,16.61
2022-09-20T12:56:54.509Z,16.63
2022-09-20T12:57:54.514Z,16.61
2022-09-20T12:58:54.484Z,16.60
2022-09-20T12:59:54.457Z,16.73
2022-09-20T13:00:54.558Z,16.94
2022-09-20T13:01:54.513Z,17.12
2022-09-20T13:02:54.428Z,17.23
2022-09-20T13:03:54.500Z,17.34
2022-09-20T13:04:54.436Z,17.52
2022-09-20T13:05:54.404Z,17.46